createdAt,value
2017-03-04T00:00:20.374Z,990.57
2017-03-04T00:01:20.906Z,990.58
2017-03-04T00:02:21.439Z,990.57
2017-03-04T00:03:21.975Z,990.58
2017-03-04T00:04:22.510Z,990.58
2017-03-04T00:05:23.045Z,990.67
2017-03-04T00:06:23.580Z,990.64
2017-03-04T00:07:24.258Z,990.59
2017-03-04T00:08:24.641Z,990.68
2017-03-04T00:09:25.174Z,990.67
2017-03-04T00:10:25.710Z,990.71
2017-03-04T00:11:26.233Z,990.73
2017-03-04T00:12:26.763Z,990.71
2017-03-04T00:13:27.294Z,990.79
2017-03-04T00:14:27.838Z,990.79
2017-03-04T00:15:28.498Z,990.75
2017-03-04T00:16:28.884Z,990.74
2017-03-04T00:17:29.414Z,990.73
2017-03-04T00:18:29.948Z,990.74
2017-03-04T00:19:30.624Z,990.72
2017-03-04T00:20:31.009Z,990.78
2017-03-04T00:21:31.543Z,990.69
2017-03-04T00:22:32.082Z,990.68
2017-03-04T00:23:32.603Z,990.65
2017-03-04T00:24:33.136Z,990.60
2017-03-04T00:25:33.667Z,990.61
2017-03-04T00:26:34.197Z,990.61
2017-03-04T00:27:34.732Z,990.60
2017-03-04T00:28:35.269Z,990.57
2017-03-04T00:29:35.794Z,990.60
2017-03-04T00:30:36.330Z,990.59
2017-03-04T00:31:36.855Z,990.58
2017-03-04T00:32:37.384Z,990.55
2017-03-04T00:33:37.917Z,990.54
2017-03-04T00:34:38.445Z,990.50
2017-03-04T00:35:38.976Z,990.44
2017-03-04T00:36:39.656Z,990.45
2017-03-04T00:37:40.039Z,990.43
2017-03-04T00:38:40.568Z,990.41
2017-03-04T00:39:41.105Z,990.44
2017-03-04T00:40:41.639Z,990.37
2017-03-04T00:41:42.169Z,990.38
2017-03-04T00:42:42.704Z,990.39
2017-03-04T00:43:43.231Z,990.39
2017-03-04T00:44:43.765Z,990.36
2017-03-04T00:45:44.300Z,990.35
2017-03-04T00:46:44.987Z,990.35
2017-03-04T00:47:45.372Z,990.32
2017-03-04T00:48:45.908Z,990.34
2017-03-04T00:49:46.443Z,990.28
2017-03-04T00:50:46.972Z,990.27
2017-03-04T00:51:47.653Z,990.25
2017-03-04T00:52:48.033Z,990.32
2017-03-04T00:53:48.565Z,990.26
2017-03-04T00:54:49.105Z,990.26
2017-03-04T00:55:49.629Z,990.26
2017-03-04T00:56:50.158Z,990.20
2017-03-04T00:57:50.693Z,990.29
2017-03-04T00:58:51.223Z,990.28
2017-03-04T00:59:51.752Z,990.22
2017-03-04T01:00:52.284Z,990.33
2017-03-04T01:01:52.813Z,990.29
2017-03-04T01:02:53.493Z,990.27
2017-03-04T01:03:53.874Z,990.28
2017-03-04T01:04:54.405Z,990.31
2017-03-04T01:05:54.940Z,990.33
2017-03-04T01:06:55.498Z,990.27
2017-03-04T01:07:56.002Z,990.24
2017-03-04T01:08:56.533Z,990.21
2017-03-04T01:09:57.064Z,990.19
2017-03-04T01:10:57.598Z,990.21
2017-03-04T01:11:58.127Z,990.18
2017-03-04T01:12:58.655Z,990.15
2017-03-04T01:13:59.185Z,990.14
2017-03-04T01:14:59.714Z,990.17
2017-03-04T01:16:00.246Z,990.14
2017-03-04T01:17:00.785Z,990.04
2017-03-04T01:18:01.309Z,990.05
2017-03-04T01:19:01.837Z,990.01
2017-03-04T01:20:02.370Z,989.99
2017-03-04T01:21:02.895Z,989.99
2017-03-04T01:22:03.433Z,990.00
2017-03-04T01:23:03.971Z,989.99
2017-03-04T01:24:04.496Z,989.99
2017-03-04T01:25:05.035Z,990.04
2017-03-04T01:26:05.556Z,990.02
2017-03-04T01:27:06.091Z,990.07
2017-03-04T01:28:06.627Z,990.00
2017-03-04T01:29:07.313Z,989.98
2017-03-04T01:30:07.695Z,989.99
2017-03-04T01:31:08.225Z,989.94
2017-03-04T01:32:08.761Z,989.91
2017-03-04T01:33:09.295Z,989.83
2017-03-04T01:34:09.826Z,989.87
2017-03-04T01:35:10.358Z,989.75
2017-03-04T01:36:10.895Z,989.84
2017-03-04T01:37:11.432Z,989.84
2017-03-04T01:38:11.956Z,989.74
2017-03-04T01:39:12.490Z,989.73
2017-03-04T01:40:13.033Z,989.78
2017-03-04T01:41:13.551Z,989.75
2017-03-04T01:42:14.081Z,989.71
2017-03-04T01:43:14.756Z,989.66
2017-03-04T01:44:15.140Z,989.68
2017-03-04T01:45:15.671Z,989.66
2017-03-04T01:46:16.207Z,989.62
2017-03-04T01:47:16.737Z,989.64
2017-03-04T01:48:17.271Z,989.61
2017-03-04T01:49:17.799Z,989.63
2017-03-04T01:50:18.336Z,989.60
2017-03-04T01:51:18.861Z,989.60
2017-03-04T01:52:19.395Z,989.56
2017-03-04T01:53:19.925Z,989.56
2017-03-04T01:54:20.457Z,989.58
2017-03-04T01:55:20.989Z,989.56
2017-03-04T01:56:21.522Z,989.57
2017-03-04T01:57:22.056Z,989.58
2017-03-04T01:58:22.730Z,989.58
2017-03-04T01:59:23.114Z,989.57
2017-03-04T02:00:23.649Z,989.56
2017-03-04T02:01:24.168Z,989.56
2017-03-04T02:02:24.705Z,989.53
2017-03-04T02:03:25.241Z,989.50
2017-03-04T02:04:25.766Z,989.45
2017-03-04T02:05:26.310Z,989.43
2017-03-04T02:06:26.831Z,989.41
2017-03-04T02:07:27.360Z,989.42
2017-03-04T02:08:27.897Z,989.40
2017-03-04T02:09:28.435Z,989.32
2017-03-04T02:10:28.968Z,989.27
2017-03-04T02:11:29.503Z,989.32
2017-03-04T02:12:30.059Z,989.32
2017-03-04T02:13:30.571Z,989.33
2017-03-04T02:14:31.099Z,989.35
2017-03-04T02:15:31.622Z,989.36
2017-03-04T02:16:32.160Z,989.34
2017-03-04T02:17:32.843Z,989.30
2017-03-04T02:18:33.220Z,989.30
2017-03-04T02:19:33.760Z,989.33
2017-03-04T02:20:34.285Z,989.33
2017-03-04T02:21:34.817Z,989.35
2017-03-04T02:22:35.357Z,989.29
2017-03-04T02:23:35.879Z,989.28
2017-03-04T02:24:36.554Z,989.26
2017-03-04T02:25:36.948Z,989.25
2017-03-04T02:26:37.473Z,989.25
2017-03-04T02:27:38.001Z,989.23
2017-03-04T02:28:38.537Z,989.16
2017-03-04T02:29:39.070Z,989.16
2017-03-04T02:30:39.600Z,989.15
2017-03-04T02:31:40.134Z,989.20
2017-03-04T02:32:40.669Z,989.18
2017-03-04T02:33:41.198Z,989.14
2017-03-04T02:34:41.731Z,989.14
2017-03-04T02:35:42.266Z,989.14
2017-03-04T02:36:42.794Z,989.21
2017-03-04T02:37:43.330Z,989.25
2017-03-04T02:38:44.156Z,989.20
2017-03-04T02:39:44.386Z,989.26
2017-03-04T02:40:44.918Z,989.15
2017-03-04T02:41:45.486Z,989.19
2017-03-04T02:42:45.983Z,989.19
2017-03-04T02:43:46.508Z,989.10
2017-03-04T02:44:47.038Z,989.15
2017-03-04T02:45:47.571Z,989.05
2017-03-04T02:46:48.107Z,989.09
2017-03-04T02:47:48.645Z,989.09
2017-03-04T02:48:49.172Z,989.14
2017-03-04T02:49:49.705Z,989.11
2017-03-04T02:50:50.241Z,989.09
2017-03-04T02:51:50.783Z,989.11
2017-03-04T02:52:51.312Z,989.05
2017-03-04T02:53:51.996Z,989.02
2017-03-04T02:54:52.374Z,989.01
2017-03-04T02:55:52.903Z,988.98
2017-03-04T02:56:53.446Z,988.98
2017-03-04T02:57:53.969Z,989.03
2017-03-04T02:58:54.505Z,988.97
2017-03-04T02:59:55.040Z,989.00
2017-03-04T03:00:55.563Z,988.98
2017-03-04T03:01:56.097Z,988.96
2017-03-04T03:02:56.637Z,988.96
2017-03-04T03:03:57.161Z,988.92
2017-03-04T03:04:57.695Z,988.94
2017-03-04T03:05:58.225Z,988.93
2017-03-04T03:06:58.754Z,988.92
2017-03-04T03:07:59.286Z,988.95
2017-03-04T03:08:59.823Z,988.89
2017-03-04T03:10:00.356Z,988.92
2017-03-04T03:11:00.882Z,988.87
2017-03-04T03:12:01.421Z,988.91
2017-03-04T03:13:01.946Z,988.94
2017-03-04T03:14:02.486Z,988.96
2017-03-04T03:15:03.012Z,988.95
2017-03-04T03:16:03.540Z,988.98
2017-03-04T03:17:04.074Z,988.98
2017-03-04T03:18:04.615Z,989.00
2017-03-04T03:19:05.138Z,988.98
2017-03-04T03:20:05.665Z,989.01
2017-03-04T03:21:06.200Z,988.99
2017-03-04T03:22:06.735Z,988.94
2017-03-04T03:23:07.262Z,988.99
2017-03-04T03:24:07.802Z,988.96
2017-03-04T03:25:08.336Z,988.96
2017-03-04T03:26:08.863Z,988.94
2017-03-04T03:27:09.390Z,988.95
2017-03-04T03:28:09.925Z,988.92
2017-03-04T03:29:10.465Z,988.89
2017-03-04T03:30:11.150Z,988.95
2017-03-04T03:31:11.531Z,988.89
2017-03-04T03:32:12.074Z,988.96
2017-03-04T03:33:12.599Z,988.83
2017-03-04T03:34:13.131Z,988.89
2017-03-04T03:35:13.663Z,988.83
2017-03-04T03:36:14.346Z,988.80
2017-03-04T03:37:14.732Z,988.79
2017-03-04T03:38:15.256Z,988.78
2017-03-04T03:39:15.787Z,988.75
2017-03-04T03:40:16.468Z,988.81
2017-03-04T03:41:16.849Z,988.81
2017-03-04T03:42:17.380Z,988.83
2017-03-04T03:43:17.908Z,988.79
2017-03-04T03:44:18.443Z,988.82
2017-03-04T03:45:18.975Z,988.74
2017-03-04T03:46:19.505Z,988.74
2017-03-04T03:47:20.036Z,988.73
2017-03-04T03:48:20.567Z,988.72
2017-03-04T03:49:21.101Z,988.70
2017-03-04T03:50:21.629Z,988.70
2017-03-04T03:51:22.161Z,988.69
2017-03-04T03:52:22.694Z,988.65
2017-03-04T03:53:23.227Z,988.70
2017-03-04T03:54:23.757Z,988.67
2017-03-04T03:55:24.290Z,988.69
2017-03-04T03:56:24.820Z,988.62
2017-03-04T03:57:25.351Z,988.61
2017-03-04T03:58:25.882Z,988.62
2017-03-04T03:59:26.426Z,988.63
2017-03-04T04:00:27.093Z,988.67
2017-03-04T04:01:27.477Z,988.64
2017-03-04T04:02:28.009Z,988.66
2017-03-04T04:03:28.545Z,988.64
2017-03-04T04:04:29.226Z,988.63
2017-03-04T04:05:29.605Z,988.69
2017-03-04T04:06:30.139Z,988.70
2017-03-04T04:07:30.677Z,988.67
2017-03-04T04:08:31.198Z,988.66
2017-03-04T04:09:31.734Z,988.62
2017-03-04T04:10:32.267Z,988.64
2017-03-04T04:11:32.813Z,988.64
2017-03-04T04:12:33.338Z,988.62
2017-03-04T04:13:33.878Z,988.61
2017-03-04T04:14:34.406Z,988.60
2017-03-04T04:15:34.937Z,988.59
2017-03-04T04:16:35.467Z,988.57
2017-03-04T04:17:36.000Z,988.57
2017-03-04T04:18:36.535Z,988.57
2017-03-04T04:19:37.065Z,988.59
2017-03-04T04:20:37.598Z,988.54
2017-03-04T04:21:38.141Z,988.49
2017-03-04T04:22:38.656Z,988.45
2017-03-04T04:23:39.186Z,988.42
2017-03-04T04:24:39.732Z,988.47
2017-03-04T04:25:40.248Z,988.38
2017-03-04T04:26:40.779Z,988.43
2017-03-04T04:27:41.313Z,988.42
2017-03-04T04:28:41.837Z,988.35
2017-03-04T04:29:42.377Z,988.32
2017-03-04T04:30:42.904Z,988.33
2017-03-04T04:31:43.444Z,988.37
2017-03-04T04:32:43.972Z,988.38
2017-03-04T04:33:44.507Z,988.28
2017-03-04T04:34:45.047Z,988.28
2017-03-04T04:35:45.571Z,988.31
2017-03-04T04:36:46.100Z,988.27
2017-03-04T04:37:46.635Z,988.31
2017-03-04T04:38:47.168Z,988.36
2017-03-04T04:39:47.699Z,988.26
2017-03-04T04:40:48.230Z,988.20
2017-03-04T04:41:48.762Z,988.26
2017-03-04T04:42:49.291Z,988.32
2017-03-04T04:43:49.825Z,988.29
2017-03-04T04:44:50.360Z,988.30
2017-03-04T04:45:50.889Z,988.27
2017-03-04T04:46:51.420Z,988.32
2017-03-04T04:47:51.951Z,988.26
2017-03-04T04:48:52.483Z,988.24
2017-03-04T04:49:53.021Z,988.18
2017-03-04T04:50:53.549Z,988.25
2017-03-04T04:51:54.084Z,988.25
2017-03-04T04:52:54.775Z,988.25
2017-03-04T04:53:55.195Z,988.22
2017-03-04T04:54:55.688Z,988.32
2017-03-04T04:55:56.223Z,988.28
2017-03-04T04:56:56.757Z,988.27
2017-03-04T04:57:57.314Z,988.28
2017-03-04T04:58:57.822Z,988.26
2017-03-04T04:59:58.358Z,988.30
2017-03-04T05:00:58.896Z,988.33
2017-03-04T05:01:59.420Z,988.28
2017-03-04T05:02:59.946Z,988.31
2017-03-04T05:04:00.481Z,988.31
2017-03-04T05:05:01.014Z,988.28
2017-03-04T05:06:01.546Z,988.25
2017-03-04T05:07:02.074Z,988.26
2017-03-04T05:08:02.602Z,988.28
2017-03-04T05:09:03.137Z,988.29
2017-03-04T05:10:03.667Z,988.25
2017-03-04T05:11:04.209Z,988.28
2017-03-04T05:12:04.729Z,988.27
2017-03-04T05:13:05.277Z,988.27
2017-03-04T05:14:05.794Z,988.22
2017-03-04T05:15:06.322Z,988.30
2017-03-04T05:16:06.853Z,988.28
2017-03-04T05:17:07.408Z,988.24
2017-03-04T05:18:07.918Z,988.23
2017-03-04T05:19:08.599Z,988.16
2017-03-04T05:20:08.980Z,988.21
2017-03-04T05:21:09.513Z,988.17
2017-03-04T05:22:10.048Z,988.12
2017-03-04T05:23:10.577Z,988.11
2017-03-04T05:24:11.110Z,988.10
2017-03-04T05:25:11.796Z,988.12
2017-03-04T05:26:12.186Z,988.05
2017-03-04T05:27:12.715Z,988.06
2017-03-04T05:28:13.248Z,988.11
2017-03-04T05:29:13.924Z,988.08
2017-03-04T05:30:14.306Z,988.06
2017-03-04T05:31:14.838Z,988.03
2017-03-04T05:32:15.373Z,988.07
2017-03-04T05:33:16.061Z,988.09
2017-03-04T05:34:16.447Z,988.10
2017-03-04T05:35:16.981Z,988.05
2017-03-04T05:36:17.521Z,988.09
2017-03-04T05:37:18.061Z,988.05
2017-03-04T05:38:18.581Z,988.08
2017-03-04T05:39:19.118Z,988.04
2017-03-04T05:40:19.647Z,988.01
2017-03-04T05:41:20.180Z,987.99
2017-03-04T05:42:20.715Z,987.95
2017-03-04T05:43:21.247Z,987.94
2017-03-04T05:44:21.775Z,987.94
2017-03-04T05:45:22.306Z,987.92
2017-03-04T05:46:22.838Z,987.94
2017-03-04T05:47:23.364Z,987.93
2017-03-04T05:48:24.050Z,987.96
2017-03-04T05:49:24.433Z,987.90
2017-03-04T05:50:24.973Z,987.88
2017-03-04T05:51:25.504Z,987.92
2017-03-04T05:52:26.038Z,987.91
2017-03-04T05:53:26.567Z,987.92
2017-03-04T05:54:27.103Z,987.90
2017-03-04T05:55:27.635Z,987.84
2017-03-04T05:56:28.163Z,987.94
2017-03-04T05:57:28.700Z,987.85
2017-03-04T05:58:29.227Z,987.81
2017-03-04T05:59:29.762Z,987.82
2017-03-04T06:00:30.292Z,987.77
2017-03-04T06:01:30.975Z,987.79
2017-03-04T06:02:31.387Z,987.81
2017-03-04T06:03:31.892Z,987.83
2017-03-04T06:04:32.591Z,987.73
2017-03-04T06:05:32.959Z,987.78
2017-03-04T06:06:33.483Z,987.75
2017-03-04T06:07:34.014Z,987.83
2017-03-04T06:08:34.549Z,987.81
2017-03-04T06:09:35.083Z,987.81
2017-03-04T06:10:35.615Z,987.79
2017-03-04T06:11:36.146Z,987.79
2017-03-04T06:12:36.874Z,987.82
2017-03-04T06:13:37.218Z,987.80
2017-03-04T06:14:37.752Z,987.80
2017-03-04T06:15:38.291Z,987.77
2017-03-04T06:16:38.824Z,987.79
2017-03-04T06:17:39.359Z,987.82
2017-03-04T06:18:39.900Z,987.81
2017-03-04T06:19:40.422Z,987.86
2017-03-04T06:20:40.957Z,987.86
2017-03-04T06:21:41.485Z,987.87
2017-03-04T06:22:42.026Z,987.82
2017-03-04T06:23:42.553Z,987.81
2017-03-04T06:24:43.090Z,987.84
2017-03-04T06:25:43.624Z,987.83
2017-03-04T06:26:44.168Z,987.77
2017-03-04T06:27:44.690Z,987.80
2017-03-04T06:28:45.221Z,987.77
2017-03-04T06:29:45.754Z,987.76
2017-03-04T06:30:46.286Z,987.75
2017-03-04T06:31:46.818Z,987.67
2017-03-04T06:32:47.351Z,987.65
2017-03-04T06:33:47.889Z,987.63
2017-03-04T06:34:48.420Z,987.63
2017-03-04T06:35:48.950Z,987.63
2017-03-04T06:36:49.483Z,987.57
2017-03-04T06:37:50.014Z,987.52
2017-03-04T06:38:50.548Z,987.62
2017-03-04T06:39:51.080Z,987.66
2017-03-04T06:40:51.615Z,987.64
2017-03-04T06:41:52.153Z,987.64
2017-03-04T06:42:52.688Z,987.59
2017-03-04T06:43:53.213Z,987.61
2017-03-04T06:44:53.749Z,987.60
2017-03-04T06:45:54.276Z,987.60
2017-03-04T06:46:54.810Z,987.60
2017-03-04T06:47:55.343Z,987.62
2017-03-04T06:48:55.878Z,987.56
2017-03-04T06:49:56.557Z,987.59
2017-03-04T06:50:56.942Z,987.53
2017-03-04T06:51:57.623Z,987.54
2017-03-04T06:52:58.008Z,987.52
2017-03-04T06:53:58.539Z,987.51
2017-03-04T06:54:59.072Z,987.58
2017-03-04T06:55:59.607Z,987.60
2017-03-04T06:57:00.145Z,987.60
2017-03-04T06:58:00.679Z,987.57
2017-03-04T06:59:01.211Z,987.59
2017-03-04T07:00:02.045Z,987.59
2017-03-04T07:01:02.282Z,987.58
2017-03-04T07:02:02.825Z,987.63
2017-03-04T07:03:03.347Z,987.63
2017-03-04T07:04:03.880Z,987.62
2017-03-04T07:05:04.413Z,987.64
2017-03-04T07:06:05.088Z,987.64
2017-03-04T07:07:05.471Z,987.66
2017-03-04T07:08:06.001Z,987.67
2017-03-04T07:09:06.531Z,987.67
2017-03-04T07:10:07.059Z,987.68
2017-03-04T07:11:07.595Z,987.72
2017-03-04T07:12:08.134Z,987.66
2017-03-04T07:13:08.659Z,987.69
2017-03-04T07:14:09.188Z,987.66
2017-03-04T07:15:09.866Z,987.71
2017-03-04T07:16:10.252Z,987.73
2017-03-04T07:17:10.782Z,987.70
2017-03-04T07:18:11.319Z,987.76
2017-03-04T07:19:11.849Z,987.77
2017-03-04T07:20:12.395Z,987.78
2017-03-04T07:21:12.914Z,987.79
2017-03-04T07:22:13.456Z,987.75
2017-03-04T07:23:13.976Z,987.70
2017-03-04T07:24:14.508Z,987.70
2017-03-04T07:25:15.041Z,987.77
2017-03-04T07:26:15.573Z,987.81
2017-03-04T07:27:16.109Z,987.78
2017-03-04T07:28:16.636Z,987.75
2017-03-04T07:29:17.171Z,987.78
2017-03-04T07:30:17.709Z,987.73
2017-03-04T07:31:18.234Z,987.75
2017-03-04T07:32:18.770Z,987.75
2017-03-04T07:33:19.299Z,987.73
2017-03-04T07:34:19.828Z,987.71
2017-03-04T07:35:20.368Z,987.71
2017-03-04T07:36:20.903Z,987.71
2017-03-04T07:37:21.448Z,987.73
2017-03-04T07:38:21.978Z,987.65
2017-03-04T07:39:22.679Z,987.62
2017-03-04T07:40:23.039Z,987.61
2017-03-04T07:41:23.575Z,987.59
2017-03-04T07:42:24.112Z,987.66
2017-03-04T07:43:24.652Z,987.65
2017-03-04T07:44:25.169Z,987.67
2017-03-04T07:45:25.701Z,987.65
2017-03-04T07:46:26.228Z,987.65
2017-03-04T07:47:27.062Z,987.63
2017-03-04T07:48:27.294Z,987.64
2017-03-04T07:49:27.827Z,987.58
2017-03-04T07:50:28.358Z,987.67
2017-03-04T07:51:28.891Z,987.64
2017-03-04T07:52:29.429Z,987.64
2017-03-04T07:53:29.960Z,987.64
2017-03-04T07:54:30.488Z,987.60
2017-03-04T07:55:31.027Z,987.60
2017-03-04T07:56:31.554Z,987.63
2017-03-04T07:57:32.088Z,987.62
2017-03-04T07:58:32.622Z,987.60
2017-03-04T07:59:33.153Z,987.68
2017-03-04T08:00:33.682Z,987.67
2017-03-04T08:01:34.211Z,987.69
2017-03-04T08:02:34.743Z,987.69
2017-03-04T08:03:35.274Z,987.68
2017-03-04T08:04:35.804Z,987.68
2017-03-04T08:05:36.343Z,987.70
2017-03-04T08:06:36.874Z,987.66
2017-03-04T08:07:37.396Z,987.62
2017-03-04T08:08:37.923Z,987.59
2017-03-04T08:09:38.459Z,987.59
2017-03-04T08:10:38.991Z,987.57
2017-03-04T08:11:39.524Z,987.59
2017-03-04T08:12:40.049Z,987.53
2017-03-04T08:13:40.613Z,987.51
2017-03-04T08:14:41.123Z,987.52
2017-03-04T08:15:41.648Z,987.53
2017-03-04T08:16:42.182Z,987.54
2017-03-04T08:17:42.716Z,987.49
2017-03-04T08:18:43.254Z,987.51
2017-03-04T08:19:43.790Z,987.52
2017-03-04T08:20:44.322Z,987.50
2017-03-04T08:21:44.861Z,987.55
2017-03-04T08:22:45.392Z,987.48
2017-03-04T08:23:45.926Z,987.52
2017-03-04T08:24:46.466Z,987.52
2017-03-04T08:25:46.987Z,987.47
2017-03-04T08:26:47.519Z,987.52
2017-03-04T08:27:48.052Z,987.44
2017-03-04T08:28:48.585Z,987.45
2017-03-04T08:29:49.115Z,987.43
2017-03-04T08:30:49.796Z,987.37
2017-03-04T08:31:50.353Z,987.37
2017-03-04T08:32:50.710Z,987.34
2017-03-04T08:33:51.241Z,987.30
2017-03-04T08:34:51.774Z,987.25
2017-03-04T08:35:52.303Z,987.20
2017-03-04T08:36:52.837Z,987.20
2017-03-04T08:37:53.366Z,987.18
2017-03-04T08:38:53.898Z,987.16
2017-03-04T08:39:54.439Z,987.06
2017-03-04T08:40:54.969Z,987.01
2017-03-04T08:41:55.497Z,987.04
2017-03-04T08:42:56.028Z,986.98
2017-03-04T08:43:56.563Z,986.99
2017-03-04T08:44:57.093Z,986.95
2017-03-04T08:45:57.622Z,986.97
2017-03-04T08:46:58.156Z,986.91
2017-03-04T08:47:58.682Z,986.94
2017-03-04T08:48:59.218Z,986.94
2017-03-04T08:49:59.773Z,986.94
2017-03-04T08:51:00.280Z,986.91
2017-03-04T08:52:00.810Z,986.97
2017-03-04T08:53:01.338Z,986.94
2017-03-04T08:54:01.870Z,986.95
2017-03-04T08:55:02.404Z,986.89
2017-03-04T08:56:02.933Z,986.91
2017-03-04T08:57:03.467Z,986.91
2017-03-04T08:58:04.001Z,986.91
2017-03-04T08:59:04.535Z,986.87
2017-03-04T09:00:05.073Z,986.95
2017-03-04T09:01:05.609Z,986.85
2017-03-04T09:02:06.142Z,986.88
2017-03-04T09:03:06.825Z,986.88
2017-03-04T09:04:07.207Z,986.90
2017-03-04T09:05:07.740Z,986.92
2017-03-04T09:06:08.271Z,986.93
2017-03-04T09:07:08.808Z,986.90
2017-03-04T09:08:09.337Z,986.87
2017-03-04T09:09:09.868Z,986.88
2017-03-04T09:10:10.399Z,986.88
2017-03-04T09:11:10.923Z,986.86
2017-03-04T09:12:11.460Z,986.83
2017-03-04T09:13:12.004Z,986.78
2017-03-04T09:14:12.533Z,986.79
2017-03-04T09:15:13.072Z,986.76
2017-03-04T09:16:13.602Z,986.77
2017-03-04T09:17:14.121Z,986.76
2017-03-04T09:18:14.651Z,986.72
2017-03-04T09:19:15.184Z,986.72
2017-03-04T09:20:15.860Z,986.68
2017-03-04T09:21:16.240Z,986.67
2017-03-04T09:22:16.777Z,986.68
2017-03-04T09:23:17.306Z,986.65
2017-03-04T09:24:17.844Z,986.68
2017-03-04T09:25:18.370Z,986.69
2017-03-04T09:26:18.905Z,986.66
2017-03-04T09:27:19.435Z,986.65
2017-03-04T09:28:19.969Z,986.69
2017-03-04T09:29:20.501Z,986.68
2017-03-04T09:30:21.026Z,986.65
2017-03-04T09:31:21.559Z,986.62
2017-03-04T09:32:22.091Z,986.60
2017-03-04T09:33:22.617Z,986.58
2017-03-04T09:34:23.154Z,986.57
2017-03-04T09:35:23.690Z,986.62
2017-03-04T09:36:24.223Z,986.53
2017-03-04T09:37:24.747Z,986.54
2017-03-04T09:38:25.281Z,986.51
2017-03-04T09:39:25.824Z,986.50
2017-03-04T09:40:26.352Z,986.48
2017-03-04T09:41:26.889Z,986.46
2017-03-04T09:42:27.425Z,986.49
2017-03-04T09:43:27.968Z,986.49
2017-03-04T09:44:28.487Z,986.50
2017-03-04T09:45:29.021Z,986.48
2017-03-04T09:46:29.558Z,986.44
2017-03-04T09:47:30.084Z,986.46
2017-03-04T09:48:30.620Z,986.43
2017-03-04T09:49:31.150Z,986.43
2017-03-04T09:50:31.682Z,986.38
2017-03-04T09:51:32.215Z,986.31
2017-03-04T09:52:32.748Z,986.28
2017-03-04T09:53:33.430Z,986.39
2017-03-04T09:54:33.808Z,986.35
2017-03-04T09:55:34.340Z,986.37
2017-03-04T09:56:34.874Z,986.29
2017-03-04T09:57:35.411Z,986.28
2017-03-04T09:58:35.942Z,986.30
2017-03-04T09:59:36.475Z,986.27
2017-03-04T10:00:37.005Z,986.21
2017-03-04T10:01:37.534Z,986.19
2017-03-04T10:02:38.073Z,986.15
2017-03-04T10:03:38.596Z,986.19
2017-03-04T10:04:39.134Z,986.17
2017-03-04T10:05:39.666Z,986.14
2017-03-04T10:06:40.198Z,986.17
2017-03-04T10:07:40.884Z,986.19
2017-03-04T10:08:41.262Z,986.06
2017-03-04T10:09:41.795Z,986.09
2017-03-04T10:10:42.323Z,986.07
2017-03-04T10:11:42.854Z,986.14
2017-03-04T10:12:43.384Z,986.12
2017-03-04T10:13:43.919Z,986.14
2017-03-04T10:14:44.452Z,986.09
2017-03-04T10:15:44.981Z,986.03
2017-03-04T10:16:45.512Z,986.11
2017-03-04T10:17:46.048Z,986.10
2017-03-04T10:18:46.572Z,986.06
2017-03-04T10:19:47.108Z,986.07
2017-03-04T10:20:47.643Z,986.11
2017-03-04T10:21:48.185Z,986.07
2017-03-04T10:22:48.725Z,986.04
2017-03-04T10:23:49.248Z,986.04
2017-03-04T10:24:49.789Z,986.04
2017-03-04T10:25:50.317Z,986.09
2017-03-04T10:26:50.848Z,986.02
2017-03-04T10:27:51.380Z,986.02
2017-03-04T10:28:52.057Z,986.01
2017-03-04T10:29:52.445Z,985.97
2017-03-04T10:30:52.975Z,986.02
2017-03-04T10:31:53.511Z,985.96
2017-03-04T10:32:54.035Z,985.93
2017-03-04T10:33:54.567Z,986.00
2017-03-04T10:35:55.645Z,986.01
2017-03-04T10:36:56.168Z,986.04
2017-03-04T10:37:56.708Z,986.04
2017-03-04T10:38:57.234Z,986.01
2017-03-04T10:39:57.783Z,986.03
2017-03-04T10:40:58.292Z,985.98
2017-03-04T10:41:58.831Z,986.01
2017-03-04T10:42:59.358Z,986.00
2017-03-04T10:43:59.890Z,986.02
2017-03-04T10:45:00.420Z,985.97
2017-03-04T10:46:00.960Z,985.99
2017-03-04T10:47:01.633Z,985.96
2017-03-04T10:48:02.016Z,985.96
2017-03-04T10:49:02.549Z,985.95
2017-03-04T10:50:03.090Z,985.92
2017-03-04T10:51:03.620Z,985.94
2017-03-04T10:52:04.149Z,985.98
2017-03-04T10:53:04.677Z,985.94
2017-03-04T10:54:05.211Z,985.99
2017-03-04T10:55:05.741Z,986.03
2017-03-04T10:56:06.278Z,985.97
2017-03-04T10:57:06.809Z,986.00
2017-03-04T10:58:07.345Z,985.99
2017-03-04T10:59:07.871Z,986.00
2017-03-04T11:00:08.413Z,985.97
2017-03-04T11:01:08.935Z,985.98
2017-03-04T11:02:09.468Z,985.94
2017-03-04T11:03:10.009Z,985.96
2017-03-04T11:04:10.541Z,985.90
2017-03-04T11:05:11.076Z,985.90
2017-03-04T11:06:11.604Z,985.90
2017-03-04T11:07:12.137Z,985.87
2017-03-04T11:08:12.664Z,985.85
2017-03-04T11:09:13.203Z,985.89
2017-03-04T11:10:13.734Z,985.89
2017-03-04T11:11:14.266Z,985.84
2017-03-04T11:12:14.796Z,985.83
2017-03-04T11:13:15.328Z,985.81
2017-03-04T11:14:15.871Z,985.82
2017-03-04T11:15:16.537Z,985.80
2017-03-04T11:16:16.920Z,985.71
2017-03-04T11:17:17.448Z,985.66
2017-03-04T11:18:17.979Z,985.65
2017-03-04T11:19:18.512Z,985.62
2017-03-04T11:20:19.057Z,985.57
2017-03-04T11:21:19.581Z,985.57
2017-03-04T11:22:20.268Z,985.59
2017-03-04T11:23:20.645Z,985.56
2017-03-04T11:24:21.321Z,985.54
2017-03-04T11:25:21.706Z,985.57
2017-03-04T11:26:22.389Z,985.59
2017-03-04T11:27:22.769Z,985.59
2017-03-04T11:28:23.301Z,985.57
2017-03-04T11:29:23.828Z,985.58
2017-03-04T11:30:24.373Z,985.60
2017-03-04T11:31:24.892Z,985.60
2017-03-04T11:32:25.425Z,985.59
2017-03-04T11:33:25.954Z,985.59
2017-03-04T11:34:26.487Z,985.53
2017-03-04T11:35:27.016Z,985.50
2017-03-04T11:36:27.555Z,985.52
2017-03-04T11:37:28.085Z,985.50
2017-03-04T11:38:28.768Z,985.51
2017-03-04T11:39:29.151Z,985.45
2017-03-04T11:40:29.682Z,985.54
2017-03-04T11:41:30.222Z,985.52
2017-03-04T11:42:30.906Z,985.48
2017-03-04T11:43:31.439Z,985.51
2017-03-04T11:44:31.834Z,985.50
2017-03-04T11:45:32.362Z,985.49
2017-03-04T11:46:32.896Z,985.49
2017-03-04T11:47:33.428Z,985.45
2017-03-04T11:48:33.961Z,985.46
2017-03-04T11:49:34.497Z,985.45
2017-03-04T11:50:35.024Z,985.45
2017-03-04T11:51:35.556Z,985.49
2017-03-04T11:52:36.086Z,985.46
2017-03-04T11:53:36.621Z,985.44
2017-03-04T11:54:37.152Z,985.42
2017-03-04T11:55:37.684Z,985.43
2017-03-04T11:56:38.218Z,985.40
2017-03-04T11:57:38.746Z,985.38
2017-03-04T11:58:39.280Z,985.40
2017-03-04T11:59:39.812Z,985.37
2017-03-04T12:00:40.350Z,985.31
2017-03-04T12:01:40.874Z,985.30
2017-03-04T12:02:41.404Z,985.32
2017-03-04T12:03:41.940Z,985.26
2017-03-04T12:04:42.469Z,985.15
2017-03-04T12:05:43.008Z,985.17
2017-03-04T12:06:43.536Z,985.13
2017-03-04T12:07:44.071Z,985.13
2017-03-04T12:08:44.596Z,985.09
2017-03-04T12:09:45.131Z,985.12
2017-03-04T12:10:45.660Z,985.12
2017-03-04T12:11:46.193Z,985.04
2017-03-04T12:12:46.728Z,985.07
2017-03-04T12:13:47.255Z,985.02
2017-03-04T12:14:47.792Z,984.98
2017-03-04T12:15:48.318Z,985.04
2017-03-04T12:16:48.849Z,984.99
2017-03-04T12:17:49.390Z,985.02
2017-03-04T12:18:49.910Z,984.99
2017-03-04T12:19:50.448Z,984.99
2017-03-04T12:20:50.977Z,984.96
2017-03-04T12:21:51.518Z,984.92
2017-03-04T12:22:52.056Z,984.89
2017-03-04T12:23:52.589Z,984.84
2017-03-04T12:24:53.159Z,984.77
2017-03-04T12:25:53.664Z,984.81
2017-03-04T12:26:54.202Z,984.75
2017-03-04T12:27:54.742Z,984.76
2017-03-04T12:28:55.265Z,984.71
2017-03-04T12:29:55.795Z,984.74
2017-03-04T12:30:56.326Z,984.65
2017-03-04T12:31:57.005Z,984.62
2017-03-04T12:32:57.394Z,984.62
2017-03-04T12:33:57.925Z,984.66
2017-03-04T12:34:58.452Z,984.69
2017-03-04T12:35:58.987Z,984.66